| time (UTC) | temp C | wind direction | speed KPH | gust KPH | rain 1hr cm | rain 24hr cm | rain mn cm | humidity % | barometer mb |
| 20260507124003 | 11 | 117 | 0.0 | 0.0 | 0.00 | 0.00 | 0.00 | 92 | 1017.2 |
| 20260507123503 | 11 | 117 | 0.0 | 0.0 | 0.00 | 0.00 | 0.00 | 92 | 1017.2 |
| 20260507123003 | 11 | 117 | 0.0 | 0.0 | 0.00 | 0.00 | 0.00 | 92 | 1017.2 |
| 20260507122004 | 11 | 132 | 0.0 | 0.0 | 0.00 | 0.00 | 0.00 | 92 | 1017.2 |
| 20260507121503 | 18 | 0 | 3.2 | 3.2 | 0.00 | 0.00 | 0.00 | 65 | 1020.0 |
| 20260507121004 | 11 | 132 | 0.0 | 0.0 | 0.00 | 0.00 | 0.00 | 92 | 1017.2 |
| 20260507120504 | 18 | 0 | 3.2 | 3.2 | 0.00 | 0.00 | 0.00 | 65 | 1020.0 |
| 20260507115504 | 18 | 0 | 3.2 | 3.2 | 0.00 | 0.00 | 0.00 | 65 | 1020.0 |
| 20260507115003 | 11 | 131 | 0.0 | 0.0 | 0.00 | 0.00 | 0.00 | 92 | 1017.2 |
| 20260507114504 | 11 | 131 | 0.0 | 0.0 | 0.00 | 0.00 | 0.00 | 92 | 1017.2 |
| 20260507114004 | 11 | 131 | 0.0 | 0.0 | 0.00 | 0.00 | 0.00 | 92 | 1017.2 |
| 20260507113503 | 10 | 131 | 0.0 | 0.0 | 0.00 | 0.00 | 0.00 | 92 | 1017.2 |
| 20260507113004 | 18 | 0 | 3.2 | 3.2 | 0.00 | 0.00 | 0.00 | 65 | 1020.0 |
| 20260507112504 | 18 | 0 | 3.2 | 3.2 | 0.00 | 0.00 | 0.00 | 65 | 1020.0 |
| 20260507111504 | 10 | 131 | 0.0 | 0.0 | 0.00 | 0.00 | 0.00 | 91 | 1017.2 |
| 20260507111003 | 18 | 0 | 3.2 | 3.2 | 0.00 | 0.00 | 0.00 | 65 | 1020.0 |
| 20260507110504 | 18 | 0 | 3.2 | 3.2 | 0.00 | 0.00 | 0.00 | 65 | 1020.0 |
| 20260507110003 | 18 | 0 | 3.2 | 3.2 | 0.00 | 0.00 | 0.00 | 65 | 1020.0 |
| 20260507105503 | 18 | 0 | 3.2 | 3.2 | 0.00 | 0.00 | 0.00 | 65 | 1020.0 |
| 20260507105004 | 10 | 131 | 0.0 | 0.0 | 0.00 | 0.00 | 0.00 | 91 | 1017.3 |
| 20260507104504 | 10 | 130 | 0.0 | 0.0 | 0.00 | 0.00 | 0.00 | 91 | 1017.3 |
| 20260507104004 | 10 | 131 | 0.0 | 0.0 | 0.00 | 0.00 | 0.00 | 91 | 1017.3 |
| 20260507103503 | 18 | 0 | 3.2 | 3.2 | 0.00 | 0.00 | 0.00 | 65 | 1020.0 |
| 20260507103003 | 18 | 0 | 3.2 | 3.2 | 0.00 | 0.00 | 0.00 | 65 | 1020.0 |
| 20260507102503 | 18 | 0 | 3.2 | 3.2 | 0.00 | 0.00 | 0.00 | 65 | 1020.0 |
| 20260507101004 | 11 | 131 | 0.0 | 0.0 | 0.00 | 0.00 | 0.00 | 91 | 1017.3 |
| 20260507100504 | 11 | 131 | 0.0 | 0.0 | 0.00 | 0.00 | 0.00 | 91 | 1017.3 |
| 20260507100005 | 11 | 131 | 0.0 | 0.0 | 0.00 | 0.00 | 0.00 | 91 | 1017.3 |
| 20260507095504 | 11 | 131 | 0.0 | 0.0 | 0.00 | 0.00 | 0.00 | 91 | 1017.3 |
| 20260507095004 | 18 | 0 | 3.2 | 3.2 | 0.00 | 0.00 | 0.00 | 65 | 1020.0 |
| 20260507094504 | 11 | 131 | 0.0 | 0.0 | 0.00 | 0.00 | 0.00 | 91 | 1017.3 |
| 20260507093503 | 18 | 0 | 3.2 | 3.2 | 0.00 | 0.00 | 0.00 | 65 | 1020.0 |
| 20260507093003 | 18 | 0 | 3.2 | 3.2 | 0.00 | 0.00 | 0.00 | 65 | 1020.0 |
| 20260507092503 | 18 | 0 | 3.2 | 3.2 | 0.00 | 0.00 | 0.00 | 65 | 1020.0 |
| 20260507092003 | 18 | 0 | 3.2 | 3.2 | 0.00 | 0.00 | 0.00 | 65 | 1020.0 |
| 20260507091503 | 18 | 0 | 3.2 | 3.2 | 0.00 | 0.00 | 0.00 | 65 | 1020.0 |
| 20260507091004 | 18 | 0 | 3.2 | 3.2 | 0.00 | 0.00 | 0.00 | 65 | 1020.0 |
| 20260507090503 | 18 | 0 | 3.2 | 3.2 | 0.00 | 0.00 | 0.00 | 65 | 1020.0 |
| 20260507090005 | 12 | 131 | 0.0 | 0.0 | 0.00 | 0.00 | 0.00 | 91 | 1017.7 |
| 20260507085503 | 12 | 131 | 0.0 | 0.0 | 0.00 | 0.00 | 0.00 | 91 | 1017.7 |
| 20260507085004 | 12 | 131 | 0.0 | 0.0 | 0.00 | 0.00 | 0.00 | 91 | 1017.7 |
| 20260507084504 | 12 | 131 | 0.0 | 0.0 | 0.00 | 0.00 | 0.00 | 90 | 1017.7 |
| 20260507084004 | 18 | 0 | 3.2 | 3.2 | 0.00 | 0.00 | 0.00 | 65 | 1020.0 |
| 20260507083005 | 18 | 0 | 3.2 | 3.2 | 0.00 | 0.00 | 0.00 | 65 | 1020.0 |
| 20260507082505 | 11 | 131 | 0.0 | 0.0 | 0.00 | 0.00 | 0.00 | 90 | 1017.9 |
| 20260507082005 | 11 | 131 | 0.0 | 0.0 | 0.00 | 0.00 | 0.00 | 90 | 1017.9 |
| 20260507081505 | 11 | 131 | 0.0 | 0.0 | 0.00 | 0.00 | 0.00 | 90 | 1017.9 |
| 20260507081004 | 18 | 0 | 3.2 | 3.2 | 0.00 | 0.00 | 0.00 | 65 | 1020.0 |
| 20260507080505 | 18 | 0 | 3.2 | 3.2 | 0.00 | 0.00 | 0.00 | 65 | 1020.0 |
| 20260507080005 | 18 | 0 | 3.2 | 3.2 | 0.00 | 0.00 | 0.00 | 65 | 1020.0 |
| 20260507075504 | 18 | 0 | 3.2 | 3.2 | 0.00 | 0.00 | 0.00 | 65 | 1020.0 |
| 20260507075005 | 18 | 0 | 3.2 | 3.2 | 0.00 | 0.00 | 0.00 | 65 | 1020.0 |
| 20260507074505 | 11 | 131 | 0.0 | 0.0 | 0.00 | 0.00 | 0.00 | 89 | 1017.9 |
| 20260507074005 | 18 | 0 | 3.2 | 3.2 | 0.00 | 0.00 | 0.00 | 65 | 1020.0 |
| 20260507073505 | 11 | 131 | 0.0 | 0.0 | 0.00 | 0.00 | 0.00 | 89 | 1017.9 |
| 20260507073005 | 18 | 0 | 3.2 | 3.2 | 0.00 | 0.00 | 0.00 | 65 | 1020.0 |
| 20260507072504 | 18 | 0 | 3.2 | 3.2 | 0.00 | 0.00 | 0.00 | 65 | 1020.0 |
| 20260507072004 | 18 | 0 | 3.2 | 3.2 | 0.00 | 0.00 | 0.00 | 65 | 1020.0 |
| 20260507071005 | 18 | 0 | 3.2 | 3.2 | 0.00 | 0.00 | 0.00 | 65 | 1020.0 |
| 20260507070505 | 18 | 0 | 3.2 | 3.2 | 0.00 | 0.00 | 0.00 | 65 | 1020.0 |
| 20260507070009 | 18 | 0 | 3.2 | 3.2 | 0.00 | 0.00 | 0.00 | 65 | 1020.0 |
| 20260507065505 | 12 | 131 | 0.0 | 0.0 | 0.00 | 0.00 | 0.00 | 87 | 1017.9 |
| 20260507065005 | 12 | 131 | 0.0 | 0.0 | 0.00 | 0.00 | 0.00 | 87 | 1016.8 |
| 20260507064505 | 12 | 131 | 0.0 | 0.0 | 0.00 | 0.00 | 0.00 | 87 | 1016.8 |
| 20260507064004 | 12 | 131 | 0.0 | 0.0 | 0.00 | 0.00 | 0.00 | 87 | 1016.8 |
| 20260507063005 | 18 | 0 | 3.2 | 3.2 | 0.00 | 0.00 | 0.00 | 65 | 1020.0 |
| 20260507062504 | 12 | 131 | 0.0 | 0.0 | 0.00 | 0.00 | 0.00 | 87 | 1016.8 |
| 20260507062005 | 12 | 131 | 0.0 | 0.0 | 0.00 | 0.00 | 0.00 | 87 | 1016.8 |
| 20260507061004 | 18 | 0 | 3.2 | 3.2 | 0.00 | 0.00 | 0.00 | 65 | 1020.0 |
| 20260507060504 | 12 | 131 | 0.0 | 0.0 | 0.00 | 0.00 | 0.00 | 86 | 1016.8 |
| 20260507060004 | 12 | 131 | 0.0 | 3.2 | 0.00 | 0.00 | 0.00 | 86 | 1016.8 |
| 20260507055504 | 13 | 131 | 0.0 | 3.2 | 0.00 | 0.00 | 0.00 | 86 | 1016.8 |
| 20260507055005 | 18 | 0 | 3.2 | 3.2 | 0.00 | 0.00 | 0.00 | 65 | 1020.0 |
| 20260507054505 | 18 | 0 | 3.2 | 3.2 | 0.00 | 0.00 | 0.00 | 65 | 1020.0 |
| 20260507054005 | 18 | 0 | 3.2 | 3.2 | 0.00 | 0.00 | 0.00 | 65 | 1020.0 |
| 20260507053005 | 13 | 147 | 0.0 | 0.0 | 0.00 | 0.00 | 0.00 | 84 | 1016.8 |
| 20260507052504 | 13 | 147 | 0.0 | 3.2 | 0.00 | 0.00 | 0.00 | 83 | 1016.8 |
| 20260507052005 | 18 | 0 | 3.2 | 3.2 | 0.00 | 0.00 | 0.00 | 65 | 1020.0 |
| 20260507051504 | 18 | 0 | 3.2 | 3.2 | 0.00 | 0.00 | 0.00 | 65 | 1020.0 |
| 20260507051004 | 18 | 0 | 3.2 | 3.2 | 0.00 | 0.00 | 0.00 | 65 | 1020.0 |
| 20260507050504 | 18 | 0 | 3.2 | 3.2 | 0.00 | 0.00 | 0.00 | 65 | 1020.0 |
| 20260507050005 | 14 | 167 | 0.0 | 0.0 | 0.00 | 0.00 | 0.00 | 81 | 1016.8 |
| 20260507045505 | 14 | 167 | 0.0 | 0.0 | 0.00 | 0.00 | 0.00 | 80 | 1016.8 |
| 20260507045005 | 15 | 167 | 0.0 | 4.8 | 0.00 | 0.00 | 0.00 | 80 | 1016.8 |
| 20260507043005 | 15 | 134 | 0.0 | 3.2 | 0.00 | 0.00 | 0.00 | 77 | 1016.8 |
| 20260507042504 | 15 | 134 | 0.0 | 0.0 | 0.00 | 0.00 | 0.00 | 76 | 1016.8 |
| 20260507041504 | 16 | 143 | 0.0 | 4.8 | 0.00 | 0.00 | 0.00 | 74 | 1016.8 |
| 20260507041004 | 16 | 114 | 0.0 | 4.8 | 0.00 | 0.00 | 0.00 | 73 | 1016.8 |
| 20260507040005 | 16 | 151 | 0.0 | 1.6 | 0.00 | 0.00 | 0.00 | 71 | 1016.8 |
| 20260507035505 | 16 | 120 | 0.0 | 0.0 | 0.00 | 0.00 | 0.00 | 71 | 1016.8 |
| 20260507035005 | 18 | 0 | 3.2 | 3.2 | 0.00 | 0.00 | 0.00 | 65 | 1020.0 |
| 20260507034505 | 17 | 120 | 0.0 | 3.2 | 0.00 | 0.00 | 0.00 | 69 | 1016.8 |
| 20260507034004 | 17 | 120 | 0.0 | 0.0 | 0.00 | 0.00 | 0.00 | 68 | 1016.8 |
| 20260507033504 | 18 | 0 | 3.2 | 3.2 | 0.00 | 0.00 | 0.00 | 65 | 1020.0 |
| 20260507033005 | 18 | 0 | 3.2 | 3.2 | 0.00 | 0.00 | 0.00 | 65 | 1020.0 |
| 20260507032504 | 18 | 0 | 3.2 | 3.2 | 0.00 | 0.00 | 0.00 | 65 | 1020.0 |
| 20260507032005 | 18 | 0 | 3.2 | 3.2 | 0.00 | 0.00 | 0.00 | 65 | 1020.0 |
| 20260507031504 | 18 | 135 | 1.6 | 4.8 | 0.00 | 0.00 | 0.00 | 65 | 1016.2 |
| 20260507031005 | 18 | 129 | 1.6 | 9.7 | 0.00 | 0.00 | 0.00 | 64 | 1016.2 |
| 20260507030505 | 18 | 122 | 4.8 | 11.3 | 0.00 | 0.00 | 0.00 | 64 | 1016.2 |
| 20260507030005 | 18 | 158 | 3.2 | 12.9 | 0.00 | 0.00 | 0.00 | 63 | 1016.2 |
| 20260507025504 | 18 | 0 | 3.2 | 3.2 | 0.00 | 0.00 | 0.00 | 65 | 1020.0 |
| 20260507025005 | 18 | 0 | 3.2 | 3.2 | 0.00 | 0.00 | 0.00 | 65 | 1020.0 |
| 20260507024005 | 18 | 0 | 3.2 | 3.2 | 0.00 | 0.00 | 0.00 | 65 | 1020.0 |
| 20260507023004 | 18 | 0 | 3.2 | 3.2 | 0.00 | 0.00 | 0.00 | 65 | 1020.0 |
| 20260507022504 | 18 | 0 | 3.2 | 3.2 | 0.00 | 0.00 | 0.00 | 65 | 1020.0 |
| 20260507022005 | 18 | 0 | 3.2 | 3.2 | 0.00 | 0.00 | 0.00 | 65 | 1020.0 |
| 20260507021504 | 20 | 127 | 0.0 | 4.8 | 0.00 | 0.00 | 0.00 | 54 | 1016.2 |
| 20260507021004 | 21 | 112 | 0.0 | 4.8 | 0.00 | 0.00 | 0.00 | 54 | 1016.2 |
| 20260507020505 | 21 | 134 | 0.0 | 3.2 | 0.00 | 0.00 | 0.00 | 54 | 1016.2 |
| 20260507020004 | 21 | 111 | 1.6 | 9.7 | 0.00 | 0.00 | 0.00 | 53 | 1016.2 |
| 20260507015505 | 18 | 0 | 3.2 | 3.2 | 0.00 | 0.00 | 0.00 | 65 | 1020.0 |
| 20260507015004 | 18 | 0 | 3.2 | 3.2 | 0.00 | 0.00 | 0.00 | 65 | 1020.0 |
| 20260507014504 | 18 | 0 | 3.2 | 3.2 | 0.00 | 0.00 | 0.00 | 65 | 1020.0 |
| 20260507014005 | 18 | 0 | 3.2 | 3.2 | 0.00 | 0.00 | 0.00 | 65 | 1020.0 |
| 20260507013504 | 21 | 172 | 1.6 | 9.7 | 0.00 | 0.00 | 0.00 | 52 | 1016.3 |
| 20260507012005 | 18 | 0 | 3.2 | 3.2 | 0.00 | 0.00 | 0.00 | 65 | 1020.0 |
| 20260507011505 | 18 | 0 | 3.2 | 3.2 | 0.00 | 0.00 | 0.00 | 65 | 1020.0 |
| 20260507011004 | 22 | 140 | 4.8 | 9.7 | 0.00 | 0.00 | 0.00 | 50 | 1016.2 |
| 20260507010505 | 22 | 158 | 1.6 | 8.0 | 0.00 | 0.00 | 0.00 | 49 | 1016.2 |
| 20260507005504 | 22 | 182 | 0.0 | 4.8 | 0.00 | 0.00 | 0.00 | 48 | 1016.0 |
| 20260507005005 | 22 | 161 | 1.6 | 4.8 | 0.00 | 0.00 | 0.00 | 49 | 1016.0 |
| 20260507004504 | 22 | 181 | 1.6 | 9.7 | 0.00 | 0.00 | 0.00 | 48 | 1016.0 |
| 20260507004004 | 22 | 175 | 1.6 | 12.9 | 0.00 | 0.00 | 0.00 | 49 | 1016.0 |
| 20260507003505 | 22 | 164 | 1.6 | 9.7 | 0.00 | 0.00 | 0.00 | 48 | 1016.0 |
| 20260507003004 | 18 | 0 | 3.2 | 3.2 | 0.00 | 0.00 | 0.00 | 65 | 1020.0 |
| 20260507002504 | 18 | 0 | 3.2 | 3.2 | 0.00 | 0.00 | 0.00 | 65 | 1020.0 |
| 20260507002005 | 18 | 0 | 3.2 | 3.2 | 0.00 | 0.00 | 0.00 | 65 | 1020.0 |
| 20260507001504 | 18 | 0 | 3.2 | 3.2 | 0.00 | 0.00 | 0.00 | 65 | 1020.0 |
| 20260507001005 | 18 | 0 | 3.2 | 3.2 | 0.00 | 0.00 | 0.00 | 65 | 1020.0 |
| 20260507000505 | 23 | 145 | 3.2 | 11.3 | 0.00 | 0.00 | 0.00 | 47 | 1016.0 |
| 20260507000005 | 18 | 0 | 3.2 | 3.2 | 0.00 | 0.00 | 0.00 | 65 | 1020.0 |
| 20260506235504 | 18 | 0 | 3.2 | 3.2 | 0.00 | 0.00 | 0.00 | 65 | 1020.0 |
| 20260506235005 | 23 | 176 | 1.6 | 9.7 | 0.00 | 0.00 | 0.00 | 46 | 1016.1 |
| 20260506234504 | 18 | 0 | 3.2 | 3.2 | 0.00 | 0.00 | 0.00 | 65 | 1020.0 |
| 20260506234004 | 18 | 0 | 3.2 | 3.2 | 0.00 | 0.00 | 0.00 | 65 | 1020.0 |
| 20260506233505 | 24 | 187 | 1.6 | 4.8 | 0.00 | 0.00 | 0.00 | 44 | 1016.1 |
| 20260506233004 | 23 | 306 | 1.6 | 8.0 | 0.00 | 0.00 | 0.00 | 45 | 1016.8 |
| 20260506232504 | 23 | 154 | 3.2 | 8.0 | 0.00 | 0.00 | 0.00 | 45 | 1016.8 |
| 20260506232005 | 23 | 124 | 3.2 | 11.3 | 0.00 | 0.00 | 0.00 | 46 | 1016.8 |
| 20260506231504 | 23 | 153 | 4.8 | 9.7 | 0.00 | 0.00 | 0.00 | 44 | 1016.8 |
| 20260506231004 | 18 | 0 | 3.2 | 3.2 | 0.00 | 0.00 | 0.00 | 65 | 1020.0 |
| 20260506230004 | 18 | 0 | 3.2 | 3.2 | 0.00 | 0.00 | 0.00 | 65 | 1020.0 |
| 20260506225005 | 18 | 0 | 3.2 | 3.2 | 0.00 | 0.00 | 0.00 | 65 | 1020.0 |
| 20260506223504 | 18 | 0 | 3.2 | 3.2 | 0.00 | 0.00 | 0.00 | 65 | 1020.0 |
| 20260506223004 | 24 | 251 | 1.6 | 8.0 | 0.00 | 0.00 | 0.00 | 45 | 1016.8 |
| 20260506222505 | 24 | 160 | 3.2 | 8.0 | 0.00 | 0.00 | 0.00 | 45 | 1016.8 |
| 20260506222004 | 18 | 0 | 3.2 | 3.2 | 0.00 | 0.00 | 0.00 | 65 | 1020.0 |
| 20260506221505 | 18 | 0 | 3.2 | 3.2 | 0.00 | 0.00 | 0.00 | 65 | 1020.0 |
| 20260506220504 | 18 | 0 | 3.2 | 3.2 | 0.00 | 0.00 | 0.00 | 65 | 1020.0 |
| 20260506220005 | 18 | 0 | 3.2 | 3.2 | 0.00 | 0.00 | 0.00 | 65 | 1020.0 |
| 20260506215006 | 24 | 260 | 0.0 | 8.0 | 0.00 | 0.00 | 0.00 | 45 | 1017.3 |
| 20260506213504 | 18 | 0 | 3.2 | 3.2 | 0.00 | 0.00 | 0.00 | 65 | 1020.0 |
| 20260506213004 | 18 | 0 | 3.2 | 3.2 | 0.00 | 0.00 | 0.00 | 65 | 1020.0 |
| 20260506212505 | 18 | 0 | 3.2 | 3.2 | 0.00 | 0.00 | 0.00 | 65 | 1020.0 |
| 20260506211004 | 23 | 188 | 3.2 | 9.7 | 0.00 | 0.00 | 0.00 | 47 | 1017.6 |
| 20260506210005 | 24 | 146 | 4.8 | 12.9 | 0.00 | 0.00 | 0.00 | 47 | 1017.6 |
| 20260506205506 | 24 | 257 | 1.6 | 9.7 | 0.00 | 0.00 | 0.00 | 47 | 1017.7 |
| 20260506205004 | 24 | 218 | 3.2 | 9.7 | 0.00 | 0.00 | 0.00 | 45 | 1017.8 |
| 20260506204505 | 24 | 208 | 3.2 | 8.0 | 0.00 | 0.00 | 0.00 | 46 | 1017.8 |
| 20260506204005 | 23 | 302 | 1.6 | 8.0 | 0.00 | 0.00 | 0.00 | 47 | 1017.8 |
| 20260506203505 | 23 | 229 | 3.2 | 11.3 | 0.00 | 0.00 | 0.00 | 47 | 1018.0 |
| 20260506203004 | 23 | 196 | 3.2 | 8.0 | 0.00 | 0.00 | 0.00 | 48 | 1018.0 |
| 20260506202005 | 18 | 0 | 3.2 | 3.2 | 0.00 | 0.00 | 0.00 | 65 | 1020.0 |
| 20260506201504 | 23 | 181 | 1.6 | 8.0 | 0.00 | 0.00 | 0.00 | 47 | 1018.0 |
| 20260506201005 | 23 | 154 | 1.6 | 8.0 | 0.00 | 0.00 | 0.00 | 48 | 1018.3 |
| 20260506200505 | 23 | 297 | 3.2 | 11.3 | 0.00 | 0.00 | 0.00 | 48 | 1018.3 |
| 20260506200005 | 23 | 218 | 3.2 | 12.9 | 0.00 | 0.00 | 0.00 | 48 | 1018.3 |
| 20260506195004 | 22 | 164 | 4.8 | 9.7 | 0.00 | 0.00 | 0.00 | 49 | 1018.3 |
| 20260506194504 | 22 | 239 | 3.2 | 8.0 | 0.00 | 0.00 | 0.00 | 49 | 1018.3 |
| 20260506194004 | 22 | 308 | 3.2 | 9.7 | 0.00 | 0.00 | 0.00 | 50 | 1018.5 |
| 20260506193005 | 21 | 173 | 1.6 | 4.8 | 0.00 | 0.00 | 0.00 | 52 | 1018.5 |
| 20260506192505 | 22 | 150 | 6.4 | 16.1 | 0.00 | 0.00 | 0.00 | 50 | 1018.5 |
| 20260506192004 | 18 | 0 | 3.2 | 3.2 | 0.00 | 0.00 | 0.00 | 65 | 1020.0 |
| 20260506191504 | 18 | 0 | 3.2 | 3.2 | 0.00 | 0.00 | 0.00 | 65 | 1020.0 |
| 20260506191005 | 21 | 248 | 3.2 | 9.7 | 0.00 | 0.00 | 0.00 | 49 | 1018.5 |
| 20260506190505 | 22 | 157 | 3.2 | 4.8 | 0.00 | 0.00 | 0.00 | 49 | 1018.5 |
| 20260506190006 | 22 | 339 | 0.0 | 8.0 | 0.00 | 0.00 | 0.00 | 52 | 1018.7 |
| 20260506185504 | 18 | 0 | 3.2 | 3.2 | 0.00 | 0.00 | 0.00 | 65 | 1020.0 |
| 20260506185004 | 18 | 0 | 3.2 | 3.2 | 0.00 | 0.00 | 0.00 | 65 | 1020.0 |
| 20260506184005 | 18 | 0 | 3.2 | 3.2 | 0.00 | 0.00 | 0.00 | 65 | 1020.0 |
| 20260506183504 | 18 | 0 | 3.2 | 3.2 | 0.00 | 0.00 | 0.00 | 65 | 1020.0 |
| 20260506183005 | 21 | 250 | 1.6 | 4.8 | 0.00 | 0.00 | 0.00 | 55 | 1018.7 |
| 20260506182505 | 20 | 182 | 1.6 | 9.7 | 0.00 | 0.00 | 0.00 | 56 | 1018.7 |
| 20260506182004 | 20 | 171 | 3.2 | 9.7 | 0.00 | 0.00 | 0.00 | 58 | 1018.7 |
| 20260506181505 | 18 | 0 | 3.2 | 3.2 | 0.00 | 0.00 | 0.00 | 65 | 1020.0 |
| 20260506181004 | 20 | 154 | 1.6 | 9.7 | 0.00 | 0.00 | 0.00 | 58 | 1018.7 |
| 20260506180504 | 20 | 160 | 3.2 | 12.9 | 0.00 | 0.00 | 0.00 | 58 | 1018.7 |
| 20260506180005 | 21 | 172 | 4.8 | 12.9 | 0.00 | 0.00 | 0.00 | 59 | 1018.8 |
| 20260506175504 | 18 | 0 | 3.2 | 3.2 | 0.00 | 0.00 | 0.00 | 65 | 1020.0 |
| 20260506174504 | 18 | 0 | 3.2 | 3.2 | 0.00 | 0.00 | 0.00 | 65 | 1020.0 |
| 20260506174004 | 18 | 0 | 3.2 | 3.2 | 0.00 | 0.00 | 0.00 | 65 | 1020.0 |
| 20260506173504 | 19 | 211 | 4.8 | 16.1 | 0.00 | 0.00 | 0.00 | 62 | 1018.8 |
| 20260506173004 | 20 | 221 | 1.6 | 4.8 | 0.00 | 0.00 | 0.00 | 62 | 1018.8 |
| 20260506172504 | 19 | 171 | 3.2 | 8.0 | 0.00 | 0.00 | 0.00 | 62 | 1018.8 |
| 20260506170504 | 19 | 192 | 0.0 | 4.8 | 0.00 | 0.00 | 0.00 | 64 | 1018.8 |
| 20260506170004 | 18 | 202 | 1.6 | 8.0 | 0.00 | 0.00 | 0.00 | 65 | 1018.8 |
| 20260506165504 | 18 | 211 | 0.0 | 4.8 | 0.00 | 0.00 | 0.00 | 65 | 1018.8 |
| 20260506165005 | 18 | 0 | 3.2 | 3.2 | 0.00 | 0.00 | 0.00 | 65 | 1020.0 |
| 20260506164504 | 18 | 0 | 3.2 | 3.2 | 0.00 | 0.00 | 0.00 | 65 | 1020.0 |
| 20260506164004 | 18 | 193 | 1.6 | 4.8 | 0.00 | 0.00 | 0.00 | 65 | 1018.8 |
| 20260506163504 | 18 | 170 | 3.2 | 9.7 | 0.00 | 0.00 | 0.00 | 65 | 1018.8 |
| 20260506163004 | 18 | 183 | 3.2 | 8.0 | 0.00 | 0.00 | 0.00 | 64 | 1018.8 |
| 20260506162005 | 18 | 0 | 3.2 | 3.2 | 0.00 | 0.00 | 0.00 | 65 | 1020.0 |
| 20260506161504 | 17 | 320 | 1.6 | 4.8 | 0.00 | 0.00 | 0.00 | 64 | 1018.9 |
| 20260506161005 | 18 | 0 | 3.2 | 3.2 | 0.00 | 0.00 | 0.00 | 65 | 1020.0 |
| 20260506160504 | 17 | 333 | 0.0 | 0.0 | 0.00 | 0.00 | 0.00 | 68 | 1018.9 |
| 20260506160004 | 17 | 333 | 0.0 | 0.0 | 0.00 | 0.00 | 0.00 | 69 | 1018.9 |
| 20260506155504 | 17 | 333 | 0.0 | 0.0 | 0.00 | 0.00 | 0.00 | 69 | 1018.9 |
| 20260506155005 | 17 | 333 | 0.0 | 0.0 | 0.00 | 0.00 | 0.00 | 70 | 1018.9 |
| 20260506154504 | 17 | 333 | 0.0 | 0.0 | 0.00 | 0.00 | 0.00 | 70 | 1018.9 |
| 20260506154004 | 17 | 333 | 0.0 | 1.6 | 0.00 | 0.00 | 0.00 | 71 | 1018.9 |
| 20260506153504 | 16 | 333 | 0.0 | 3.2 | 0.00 | 0.00 | 0.00 | 72 | 1018.9 |
| 20260506153004 | 16 | 0 | 0.0 | 1.6 | 0.00 | 0.00 | 0.00 | 72 | 1018.9 |
| 20260506152504 | 16 | 14 | 0.0 | 0.0 | 0.00 | 0.00 | 0.00 | 73 | 1018.3 |
| 20260506152005 | 16 | 14 | 0.0 | 0.0 | 0.00 | 0.00 | 0.00 | 74 | 1018.3 |
| 20260506151504 | 18 | 0 | 3.2 | 3.2 | 0.00 | 0.00 | 0.00 | 65 | 1020.0 |
| 20260506151005 | 16 | 14 | 0.0 | 0.0 | 0.00 | 0.00 | 0.00 | 76 | 1018.3 |
| 20260506150504 | 18 | 0 | 3.2 | 3.2 | 0.00 | 0.00 | 0.00 | 65 | 1020.0 |
| 20260506150005 | 15 | 37 | 0.0 | 0.0 | 0.00 | 0.00 | 0.00 | 79 | 1018.3 |
| 20260506145505 | 15 | 37 | 0.0 | 0.0 | 0.00 | 0.00 | 0.00 | 80 | 1018.3 |
| 20260506145004 | 18 | 0 | 3.2 | 3.2 | 0.00 | 0.00 | 0.00 | 65 | 1020.0 |
| 20260506144005 | 18 | 0 | 3.2 | 3.2 | 0.00 | 0.00 | 0.00 | 65 | 1020.0 |
| 20260506143505 | 18 | 0 | 3.2 | 3.2 | 0.00 | 0.00 | 0.00 | 65 | 1020.0 |
| 20260506143004 | 18 | 0 | 3.2 | 3.2 | 0.00 | 0.00 | 0.00 | 65 | 1020.0 |
| 20260506142504 | 18 | 0 | 3.2 | 3.2 | 0.00 | 0.00 | 0.00 | 65 | 1020.0 |
| 20260506141504 | 12 | 37 | 0.0 | 0.0 | 0.00 | 0.00 | 0.00 | 90 | 1018.3 |
| 20260506140504 | 12 | 37 | 0.0 | 0.0 | 0.00 | 0.00 | 0.00 | 90 | 1018.3 |
| 20260506135504 | 12 | 37 | 0.0 | 0.0 | 0.00 | 0.00 | 0.00 | 91 | 1018.3 |
| 20260506135004 | 12 | 37 | 0.0 | 0.0 | 0.00 | 0.00 | 0.00 | 91 | 1018.3 |
| 20260506134504 | 12 | 37 | 0.0 | 0.0 | 0.00 | 0.00 | 0.00 | 91 | 1018.3 |
| 20260506134004 | 12 | 37 | 0.0 | 0.0 | 0.00 | 0.00 | 0.00 | 91 | 1018.3 |
| 20260506133504 | 12 | 37 | 0.0 | 0.0 | 0.00 | 0.00 | 0.00 | 91 | 1018.3 |
| 20260506133004 | 18 | 0 | 3.2 | 3.2 | 0.00 | 0.00 | 0.00 | 65 | 1020.0 |
| 20260506132504 | 18 | 0 | 3.2 | 3.2 | 0.00 | 0.00 | 0.00 | 65 | 1020.0 |
| 20260506132005 | 18 | 0 | 3.2 | 3.2 | 0.00 | 0.00 | 0.00 | 65 | 1020.0 |
| 20260506131504 | 18 | 0 | 3.2 | 3.2 | 0.00 | 0.00 | 0.00 | 65 | 1020.0 |
| 20260506131005 | 18 | 0 | 3.2 | 3.2 | 0.00 | 0.00 | 0.00 | 65 | 1020.0 |
| 20260506130505 | 18 | 0 | 3.2 | 3.2 | 0.00 | 0.00 | 0.00 | 65 | 1020.0 |
| 20260506125504 | 11 | 37 | 0.0 | 0.0 | 0.00 | 0.00 | 0.00 | 91 | 1018.1 |
| 20260506125004 | 18 | 0 | 3.2 | 3.2 | 0.00 | 0.00 | 0.00 | 65 | 1020.0 |
| 20260506124504 | 18 | 0 | 3.2 | 3.2 | 0.00 | 0.00 | 0.00 | 65 | 1020.0 |